Time;durP1;ratioP1;P1;durP2;ratioP2;P2;SDS_P1;SDS_P2;PMS_P1;PMS_P2;Temp;Humidity;BMP_temperature;BMP_pressure;BME280_temperature;BME280_humidity;BME280_pressure;Samples;Min_cycle;Max_cycle;Signal;HPM_P1;HPM_P2
2023/01/23 00:01:56;;;;;;;45.80;21.90;;;-3.30;99.90;;;;;;6210774;23;20418;-72
2023/01/23 00:04:23;;;;;;;50.20;22.23;;;-3.40;99.90;;;;;;6210680;23;20406;-73
2023/01/23 00:06:50;;;;;;;43.57;20.57;;;-3.40;99.90;;;;;;6209635;23;20464;-74
2023/01/23 00:09:18;;;;;;;48.43;21.00;;;-3.20;99.90;;;;;;6209795;23;20809;-73
2023/01/23 00:11:45;;;;;;;41.33;21.40;;;-3.10;99.90;;;;;;6210325;23;20407;-74
2023/01/23 00:14:12;;;;;;;47.03;21.60;;;-3.40;99.90;;;;;;6210318;23;20401;-74
2023/01/23 00:16:38;;;;;;;42.03;19.73;;;-3.20;99.90;;;;;;6210850;23;20868;-78
2023/01/23 00:19:05;;;;;;;43.03;21.13;;;-3.20;99.90;;;;;;6214095;23;20410;-74
2023/01/23 00:21:32;;;;;;;44.33;19.70;;;-3.50;99.90;;;;;;6214884;23;20938;-75
2023/01/23 00:24:00;;;;;;;43.97;18.03;;;-3.50;99.90;;;;;;6215535;23;20412;-74
2023/01/23 00:26:31;;;;;;;48.80;22.90;;;-3.50;99.90;;;;;;6215957;23;20446;-74
2023/01/23 00:28:58;;;;;;;37.63;18.10;;;-3.70;99.90;;;;;;6211104;23;20779;-73
2023/01/23 00:31:27;;;;;;;43.20;20.93;;;-3.60;99.90;;;;;;6210788;23;20410;-76
2023/01/23 00:33:56;;;;;;;38.53;18.00;;;-3.60;99.90;;;;;;6209864;23;20408;-76
2023/01/23 00:36:24;;;;;;;43.93;20.00;;;-3.60;99.90;;;;;;6209594;23;20750;-77
2023/01/23 00:38:50;;;;;;;40.77;20.20;;;-3.70;99.90;;;;;;6210388;23;20410;-76
2023/01/23 00:41:17;;;;;;;37.43;20.20;;;-3.80;99.90;;;;;;6210220;23;20398;-76
2023/01/23 00:43:47;;;;;;;47.50;19.80;;;-3.90;99.90;;;;;;6214841;23;20404;-76
2023/01/23 00:46:14;;;;;;;43.77;19.00;;;-3.90;99.90;;;;;;6216491;23;20457;-75
2023/01/23 00:48:40;;;;;;;48.57;21.30;;;-4.00;99.90;;;;;;6216419;23;20417;-74
2023/01/23 00:51:08;;;;;;;42.40;18.90;;;-4.00;99.90;;;;;;6215802;23;20416;-73
2023/01/23 00:53:34;;;;;;;39.77;19.00;;;-4.00;99.90;;;;;;6215336;23;20433;-73
2023/01/23 00:56:01;;;;;;;44.37;20.00;;;-4.10;99.90;;;;;;6212971;23;20421;-75
2023/01/23 00:58:28;;;;;;;46.47;21.13;;;-4.00;99.90;;;;;;6211521;23;20403;-73
2023/01/23 01:00:56;;;;;;;38.20;21.90;;;-4.00;99.90;;;;;;6209849;23;20410;-73
2023/01/23 01:03:24;;;;;;;32.23;17.90;;;-4.00;99.90;;;;;;6210149;23;20416;-73
2023/01/23 01:05:50;;;;;;;43.30;19.90;;;-4.00;99.90;;;;;;6208711;23;20442;-76
2023/01/23 01:08:17;;;;;;;38.70;18.80;;;-3.90;99.90;;;;;;6210567;23;20450;-74
2023/01/23 01:10:44;;;;;;;46.87;19.40;;;-3.80;99.90;;;;;;6211645;23;20399;-75
2023/01/23 01:13:11;;;;;;;36.50;19.43;;;-3.90;99.90;;;;;;6211287;23;20406;-74
2023/01/23 01:15:38;;;;;;;40.87;18.40;;;-3.80;99.90;;;;;;6211176;23;20407;-74
2023/01/23 01:18:08;;;;;;;41.13;19.43;;;-3.70;99.90;;;;;;6211713;23;20415;-75
2023/01/23 01:20:35;;;;;;;44.53;20.10;;;-3.60;99.90;;;;;;6211497;23;20403;-75
2023/01/23 01:23:02;;;;;;;41.73;20.73;;;-3.50;99.90;;;;;;6210764;23;20410;-76
2023/01/23 01:25:30;;;;;;;35.50;18.97;;;-3.40;99.90;;;;;;6211574;23;20736;-75
2023/01/23 01:27:56;;;;;;;43.20;19.50;;;-3.30;99.90;;;;;;6211593;23;20461;-76
2023/01/23 01:30:24;;;;;;;31.60;18.70;;;-3.20;99.90;;;;;;6211363;23;20894;-74
2023/01/23 01:32:51;;;;;;;35.73;19.13;;;-3.10;99.90;;;;;;6211208;23;20430;-74
2023/01/23 01:35:20;;;;;;;36.80;17.83;;;-3.10;99.90;;;;;;6211250;23;20410;-74
2023/01/23 01:37:47;;;;;;;39.27;19.10;;;-2.90;99.90;;;;;;6210906;23;20410;-75
2023/01/23 01:40:16;;;;;;;33.37;16.57;;;-2.80;99.90;;;;;;6211109;23;20410;-74
2023/01/23 01:42:45;;;;;;;37.00;17.77;;;-2.80;99.90;;;;;;6211658;23;20417;-75
2023/01/23 01:46:04;;;;;;;35.70;18.50;;;-3.00;99.90;;;;;;6211529;23;20418;-75
2023/01/23 01:48:34;;;;;;;37.70;18.00;;;-3.10;99.90;;;;;;6162034;23;20782;-75
2023/01/23 01:51:09;;;;;;;30.90;16.33;;;-3.10;99.90;;;;;;6210740;23;20755;-75
2023/01/23 01:53:37;;;;;;;41.90;19.70;;;-3.00;99.90;;;;;;6210999;23;20401;-75
2023/01/23 01:56:05;;;;;;;35.33;19.23;;;-3.00;99.90;;;;;;6210228;23;20390;-75
2023/01/23 01:58:33;;;;;;;41.37;19.13;;;-3.00;99.90;;;;;;6210901;23;20910;-75
2023/01/23 02:00:59;;;;;;;33.30;17.53;;;-2.90;99.90;;;;;;6211308;23;20402;-74
2023/01/23 02:03:26;;;;;;;42.10;20.10;;;-2.90;99.90;;;;;;6211436;23;20410;-74
2023/01/23 02:05:53;;;;;;;32.83;18.03;;;-2.70;99.90;;;;;;6210593;23;20779;-74
2023/01/23 02:08:27;;;;;;;30.87;14.50;;;-2.70;99.90;;;;;;6210498;23;20978;-76
2023/01/23 02:10:54;;;;;;;37.60;17.63;;;-2.60;99.90;;;;;;6211092;23;20398;-75
2023/01/23 02:13:24;;;;;;;31.50;17.03;;;-2.50;99.90;;;;;;6210577;23;20420;-75
2023/01/23 02:15:52;;;;;;;32.40;15.87;;;-2.50;99.90;;;;;;6210810;23;20930;-75
2023/01/23 02:18:21;;;;;;;29.97;16.27;;;-2.40;99.90;;;;;;6210602;23;20418;-74
2023/01/23 02:20:50;;;;;;;26.73;15.17;;;-2.40;99.90;;;;;;6210764;23;20412;-75
2023/01/23 02:23:27;;;;;;;38.03;18.00;;;-2.40;99.90;;;;;;6210694;23;20410;-75
2023/01/23 02:25:59;;;;;;;40.00;16.33;;;-2.40;99.90;;;;;;6211181;23;20900;-76
2023/01/23 02:28:37;;;;;;;28.03;14.33;;;-2.40;99.90;;;;;;6215564;23;20435;-75
2023/01/23 02:31:05;;;;;;;31.70;16.57;;;-2.40;99.90;;;;;;6212046;23;20399;-75
2023/01/23 02:33:45;;;;;;;29.20;14.67;;;-2.30;99.90;;;;;;6210821;23;20703;-76
2023/01/23 02:36:12;;;;;;;30.60;15.10;;;-2.30;99.90;;;;;;6210446;23;20414;-74
2023/01/23 02:38:47;;;;;;;30.77;16.07;;;-2.30;99.90;;;;;;6211119;23;20417;-75
2023/01/23 02:41:18;;;;;;;33.33;17.73;;;-2.30;99.90;;;;;;6210869;23;20459;-74
2023/01/23 02:43:45;;;;;;;31.37;16.80;;;-2.30;99.90;;;;;;6210661;23;20399;-76
2023/01/23 02:46:13;;;;;;;28.80;13.77;;;-2.30;99.90;;;;;;6210136;23;20409;-75
2023/01/23 02:48:42;;;;;;;29.20;16.23;;;-2.20;99.90;;;;;;6210989;23;20442;-75
2023/01/23 02:51:09;;;;;;;31.83;17.13;;;-2.20;99.90;;;;;;6210887;23;20415;-75
2023/01/23 02:53:36;;;;;;;26.00;15.03;;;-2.10;99.90;;;;;;6210457;23;20409;-75
2023/01/23 02:56:03;;;;;;;27.57;15.00;;;-2.10;99.90;;;;;;6210617;23;20402;-74
2023/01/23 03:01:16;;;;;;;32.83;17.27;;;-2.10;99.90;;;;;;6209718;23;20724;-74
2023/01/23 03:03:43;;;;;;;25.63;14.53;;;-2.10;99.90;;;;;;6210348;23;20760;-75
2023/01/23 03:06:10;;;;;;;28.33;16.47;;;-2.10;99.90;;;;;;6210063;23;20438;-75
2023/01/23 03:08:47;;;;;;;29.40;16.50;;;-2.10;99.90;;;;;;6210260;23;20629;-78
2023/01/23 03:11:16;;;;;;;34.30;16.43;;;-2.10;99.90;;;;;;6210350;23;20409;-74
2023/01/23 03:13:44;;;;;;;24.80;13.73;;;-2.00;99.90;;;;;;6209943;23;20394;-75
2023/01/23 03:16:11;;;;;;;27.20;15.07;;;-2.00;99.90;;;;;;6209990;23;20413;-75
2023/01/23 03:18:38;;;;;;;30.33;14.10;;;-2.10;99.90;;;;;;6210029;23;20394;-75
2023/01/23 03:21:06;;;;;;;29.73;16.00;;;-2.10;99.90;;;;;;6209973;23;20437;-74
2023/01/23 03:23:34;;;;;;;25.47;16.30;;;-2.10;99.90;;;;;;6210097;23;20413;-75
2023/01/23 03:26:01;;;;;;;28.57;15.50;;;-2.10;99.90;;;;;;6209849;23;20956;-74
2023/01/23 03:31:15;;;;;;;25.37;14.20;;;-2.10;99.90;;;;;;6209854;23;20382;-75
2023/01/23 03:33:43;;;;;;;30.30;14.67;;;-2.10;99.90;;;;;;6209472;23;20938;-75
2023/01/23 03:36:11;;;;;;;30.60;17.23;;;-2.10;99.90;;;;;;6210013;23;20417;-75
2023/01/23 03:41:23;;;;;;;28.40;15.30;;;-2.20;99.90;;;;;;6209600;23;20399;-75
2023/01/23 03:41:24;;;;;;;25.93;14.93;;;-2.10;99.90;;;;;;6209938;23;20390;-75
2023/01/23 03:43:51;;;;;;;28.03;16.00;;;-2.10;99.90;;;;;;6209832;23;20421;-74
2023/01/23 03:46:19;;;;;;;29.67;15.50;;;-2.00;99.90;;;;;;6209482;23;20182;-76
2023/01/23 03:48:46;;;;;;;28.63;15.70;;;-2.00;99.90;;;;;;6209656;23;20971;-74
2023/01/23 03:51:12;;;;;;;25.93;16.73;;;-2.10;99.90;;;;;;6209585;23;20418;-76
2023/01/23 03:53:39;;;;;;;22.73;14.30;;;-2.10;99.90;;;;;;6210208;23;20407;-75
2023/01/23 03:56:06;;;;;;;24.80;12.77;;;-2.00;99.90;;;;;;6209945;23;20412;-74
2023/01/23 03:58:33;;;;;;;24.30;13.83;;;-1.90;99.90;;;;;;6209707;23;20398;-75
2023/01/23 04:01:02;;;;;;;23.47;13.67;;;-1.90;99.90;;;;;;6210064;23;20411;-73
2023/01/23 04:03:30;;;;;;;25.20;14.27;;;-1.90;99.90;;;;;;6210277;23;20501;-75
2023/01/23 04:05:58;;;;;;;30.17;14.30;;;-1.90;99.90;;;;;;6209593;23;20446;-75
2023/01/23 04:08:25;;;;;;;27.83;14.80;;;-1.80;99.90;;;;;;6209150;23;20460;-74
2023/01/23 04:10:52;;;;;;;22.47;13.60;;;-1.80;99.90;;;;;;6209379;23;20566;-75
2023/01/23 04:13:18;;;;;;;23.53;11.70;;;-1.70;99.90;;;;;;6219055;23;20920;-74
2023/01/23 04:15:45;;;;;;;24.60;13.30;;;-1.80;99.90;;;;;;6210007;23;20410;-75
2023/01/23 04:18:12;;;;;;;27.03;13.03;;;-1.80;99.90;;;;;;6209828;23;20406;-75
2023/01/23 04:20:40;;;;;;;25.37;15.37;;;-1.70;99.90;;;;;;6209604;23;20899;-75
2023/01/23 04:23:07;;;;;;;22.80;12.53;;;-1.70;99.90;;;;;;6210674;23;20406;-75
2023/01/23 04:25:33;;;;;;;28.80;15.00;;;-1.70;99.90;;;;;;6208977;23;20416;-76
2023/01/23 04:28:00;;;;;;;25.30;12.13;;;-1.60;99.90;;;;;;6209545;23;20434;-75
2023/01/23 04:30:27;;;;;;;23.80;13.40;;;-1.60;99.90;;;;;;6209550;23;20900;-75
2023/01/23 04:32:54;;;;;;;19.60;12.33;;;-1.60;99.90;;;;;;6209641;23;20406;-75
2023/01/23 04:35:21;;;;;;;23.33;12.73;;;-1.60;99.90;;;;;;6209413;23;20391;-75
2023/01/23 04:37:49;;;;;;;25.50;13.50;;;-1.60;99.90;;;;;;6209641;23;20410;-74
2023/01/23 04:40:17;;;;;;;23.83;14.43;;;-1.60;99.90;;;;;;6209485;23;20422;-75
2023/01/23 04:42:44;;;;;;;26.43;14.80;;;-1.70;99.90;;;;;;6209343;23;20719;-76
2023/01/23 04:45:11;;;;;;;31.60;15.40;;;-1.80;99.90;;;;;;6209506;23;20744;-75
2023/01/23 04:47:38;;;;;;;24.07;14.23;;;-1.80;99.90;;;;;;6209429;23;20448;-75
2023/01/23 04:50:05;;;;;;;30.87;15.33;;;-1.90;99.90;;;;;;6207992;23;20442;-77
2023/01/23 04:52:32;;;;;;;26.07;15.20;;;-2.00;99.90;;;;;;6207774;23;20445;-76
2023/01/23 04:55:00;;;;;;;26.03;14.03;;;-1.90;99.90;;;;;;6208245;23;20398;-76
2023/01/23 04:57:27;;;;;;;51.97;25.53;;;-1.90;99.90;;;;;;6207771;23;20814;-74
2023/01/23 04:59:54;;;;;;;27.07;14.73;;;-1.80;99.90;;;;;;6207828;23;20723;-75
2023/01/23 05:02:20;;;;;;;22.43;14.10;;;-1.80;99.90;;;;;;6208639;23;20415;-76
2023/01/23 05:04:47;;;;;;;29.40;15.43;;;-1.80;99.90;;;;;;6209156;23;20411;-76
2023/01/23 05:07:14;;;;;;;35.53;17.97;;;-1.80;99.90;;;;;;6209385;23;20402;-76
2023/01/23 05:09:41;;;;;;;28.27;14.77;;;-1.70;99.90;;;;;;6209215;23;20399;-72
2023/01/23 05:12:09;;;;;;;26.67;14.07;;;-1.70;99.90;;;;;;6209937;23;20410;-72
2023/01/23 05:14:36;;;;;;;30.03;16.73;;;-1.70;99.90;;;;;;6209665;23;20414;-72
2023/01/23 05:17:03;;;;;;;27.00;15.50;;;-1.70;99.90;;;;;;6209932;23;20417;-72
2023/01/23 05:19:30;;;;;;;28.00;17.90;;;-1.80;99.90;;;;;;6209535;23;20403;-72
2023/01/23 05:21:56;;;;;;;26.50;13.60;;;-1.80;99.90;;;;;;6209911;23;20411;-75
2023/01/23 05:24:23;;;;;;;28.00;16.20;;;-1.80;99.90;;;;;;6209549;23;20418;-72
2023/01/23 05:26:50;;;;;;;29.47;14.13;;;-1.80;99.90;;;;;;6208644;23;20421;-72
2023/01/23 05:29:18;;;;;;;30.67;15.37;;;-1.70;99.90;;;;;;6209037;23;20463;-72
2023/01/23 05:31:45;;;;;;;24.57;14.37;;;-1.70;99.90;;;;;;6209741;23;20425;-73
2023/01/23 05:34:11;;;;;;;26.67;13.63;;;-1.60;99.90;;;;;;6210309;23;20723;-73
2023/01/23 05:36:38;;;;;;;24.80;14.23;;;-1.60;99.90;;;;;;6209204;23;20483;-74
2023/01/23 05:39:05;;;;;;;31.33;14.33;;;-1.70;99.90;;;;;;6209377;23;20406;-75
2023/01/23 05:41:32;;;;;;;26.93;15.07;;;-1.70;99.90;;;;;;6209556;23;20402;-76
2023/01/23 05:43:58;;;;;;;27.13;14.97;;;-1.70;99.90;;;;;;6208501;23;20414;-72
2023/01/23 05:46:26;;;;;;;22.50;13.53;;;-1.70;99.90;;;;;;6207766;23;20837;-72
2023/01/23 05:48:53;;;;;;;22.40;13.40;;;-1.70;99.90;;;;;;6208076;23;20978;-72
2023/01/23 05:51:21;;;;;;;25.97;14.30;;;-1.80;99.90;;;;;;6207985;23;20415;-72
2023/01/23 05:53:48;;;;;;;22.67;13.90;;;-1.70;99.90;;;;;;6208852;23;20428;-72
2023/01/23 05:56:15;;;;;;;22.43;13.37;;;-1.70;99.90;;;;;;6210512;23;20417;-73
2023/01/23 05:58:41;;;;;;;23.80;14.33;;;-1.70;99.90;;;;;;6210689;23;20405;-74
2023/01/23 06:01:08;;;;;;;22.23;13.80;;;-1.60;99.90;;;;;;6210540;23;20417;-74
2023/01/23 06:03:36;;;;;;;23.80;13.33;;;-1.70;99.90;;;;;;6210542;23;20418;-75
2023/01/23 06:06:03;;;;;;;28.80;15.37;;;-1.70;99.90;;;;;;6209204;23;20494;-76
2023/01/23 06:08:30;;;;;;;20.47;12.90;;;-1.60;99.90;;;;;;6211384;23;20477;-75
2023/01/23 06:10:58;;;;;;;25.87;14.17;;;-1.60;99.90;;;;;;6211055;23;20409;-77
2023/01/23 06:13:25;;;;;;;27.80;15.50;;;-1.60;99.90;;;;;;6210882;23;20420;-77
2023/01/23 06:15:52;;;;;;;29.60;18.17;;;-1.70;99.90;;;;;;6210352;23;20414;-77
2023/01/23 06:18:19;;;;;;;24.40;14.03;;;-1.80;99.90;;;;;;6209937;23;20410;-75
2023/01/23 06:20:47;;;;;;;25.57;15.70;;;-1.80;99.90;;;;;;6209813;23;20407;-73
2023/01/23 06:23:14;;;;;;;25.23;15.70;;;-1.70;99.90;;;;;;6211245;23;20426;-74
2023/01/23 06:25:42;;;;;;;27.33;14.90;;;-1.60;99.90;;;;;;6210431;23;20398;-77
2023/01/23 06:28:09;;;;;;;26.77;13.13;;;-1.70;99.90;;;;;;6210019;23;20537;-76
2023/01/23 06:30:36;;;;;;;24.33;14.43;;;-1.70;99.90;;;;;;6210431;23;20416;-73
2023/01/23 06:33:03;;;;;;;24.20;13.97;;;-1.70;99.90;;;;;;6209814;23;20420;-74
2023/01/23 06:35:30;;;;;;;35.30;13.80;;;-1.60;99.90;;;;;;6209007;23;20421;-74
2023/01/23 06:37:58;;;;;;;29.80;15.97;;;-1.60;99.90;;;;;;6210652;23;20422;-75
2023/01/23 06:40:25;;;;;;;30.67;16.50;;;-1.70;99.90;;;;;;6209927;23;20415;-73
2023/01/23 06:42:55;;;;;;;39.20;19.30;;;-1.70;99.90;;;;;;6210506;23;20787;-76
2023/01/23 06:45:22;;;;;;;41.17;20.40;;;-1.70;99.90;;;;;;6210723;23;20422;-73
2023/01/23 06:47:49;;;;;;;34.77;18.40;;;-1.80;99.90;;;;;;6210116;23;20429;-71
2023/01/23 06:50:16;;;;;;;38.03;17.90;;;-1.70;99.90;;;;;;6209650;23;20437;-71
2023/01/23 06:52:43;;;;;;;41.10;20.20;;;-1.70;99.90;;;;;;6209221;23;20413;-72
2023/01/23 06:55:11;;;;;;;47.67;19.40;;;-1.70;99.90;;;;;;6209510;23;20402;-71
2023/01/23 06:57:39;;;;;;;55.53;24.07;;;-1.80;99.90;;;;;;6210215;23;20398;-71
2023/01/23 07:00:08;;;;;;;43.27;21.40;;;-1.80;99.90;;;;;;6209748;23;20494;-72
2023/01/23 07:02:37;;;;;;;45.90;20.63;;;-1.70;99.90;;;;;;6209237;23;20905;-71
2023/01/23 07:05:04;;;;;;;53.87;23.70;;;-1.80;99.90;;;;;;6207954;23;20430;-70
2023/01/23 07:07:30;;;;;;;55.57;22.20;;;-1.70;99.90;;;;;;6209657;23;20399;-70
2023/01/23 07:09:57;;;;;;;44.87;19.27;;;-1.70;99.90;;;;;;6209985;23;20465;-70
2023/01/23 07:12:26;;;;;;;48.60;21.60;;;-1.40;99.90;;;;;;6208959;23;20414;-72
2023/01/23 07:14:52;;;;;;;40.03;20.73;;;-1.60;99.90;;;;;;6209988;23;20447;-71
2023/01/23 07:17:19;;;;;;;52.40;23.03;;;-1.50;99.90;;;;;;6209523;23;20744;-71
2023/01/23 07:19:46;;;;;;;45.53;21.40;;;-1.50;99.90;;;;;;6208940;23;20415;-72
2023/01/23 07:22:16;;;;;;;44.63;20.13;;;-1.60;99.90;;;;;;6209310;23;20418;-70
2023/01/23 07:24:42;;;;;;;44.50;20.47;;;-1.40;99.90;;;;;;6208431;23;20607;-71
2023/01/23 07:27:09;;;;;;;44.03;21.60;;;-1.60;99.90;;;;;;6209486;23;20410;-72
2023/01/23 07:29:37;;;;;;;57.30;22.97;;;-1.70;99.90;;;;;;6209145;23;20951;-70
2023/01/23 07:32:05;;;;;;;45.47;19.93;;;-1.70;99.90;;;;;;6209395;23;20411;-71
2023/01/23 07:34:31;;;;;;;39.60;20.97;;;-1.60;99.90;;;;;;6209426;23;20401;-71
2023/01/23 07:36:58;;;;;;;49.33;22.93;;;-1.60;99.90;;;;;;6208822;23;20436;-71
2023/01/23 07:39:25;;;;;;;48.03;21.07;;;-1.60;99.90;;;;;;6209408;23;20403;-71
2023/01/23 07:41:52;;;;;;;64.23;25.37;;;;;;;;;;6208306;23;20529;-72
2023/01/23 07:44:21;;;;;;;46.00;21.60;;;-1.20;99.90;;;;;;6208988;23;20398;-73
2023/01/23 07:46:49;;;;;;;53.90;23.90;;;-1.00;99.90;;;;;;6209354;23;20412;-72
2023/01/23 07:49:17;;;;;;;52.43;25.50;;;-1.20;99.90;;;;;;6209039;23;20826;-72
2023/01/23 07:51:43;;;;;;;63.47;25.37;;;-1.40;99.90;;;;;;6209041;23;20410;-73
2023/01/23 07:54:10;;;;;;;51.17;24.50;;;-1.60;99.90;;;;;;6209244;23;20420;-73
2023/01/23 07:56:37;;;;;;;49.73;20.27;;;-1.60;99.90;;;;;;6208830;23;20470;-72
2023/01/23 07:59:04;;;;;;;40.50;19.27;;;-1.50;99.90;;;;;;6209486;23;20442;-73
2023/01/23 08:01:31;;;;;;;48.80;21.50;;;-1.60;99.90;;;;;;6209035;23;20411;-73
2023/01/23 08:03:59;;;;;;;42.63;19.07;;;-1.50;99.90;;;;;;6208821;23;20718;-72
2023/01/23 08:06:26;;;;;;;48.63;21.40;;;-1.40;99.90;;;;;;6208637;23;20449;-74
2023/01/23 08:08:52;;;;;;;43.33;18.57;;;-1.40;99.90;;;;;;6209059;23;20540;-73
2023/01/23 08:11:19;;;;;;;41.17;18.60;;;-1.50;99.90;;;;;;6209114;23;20415;-72
2023/01/23 08:13:49;;;;;;;38.13;18.03;;;-1.40;99.90;;;;;;6208992;23;20406;-72
2023/01/23 08:16:16;;;;;;;33.80;19.40;;;-1.30;99.90;;;;;;6209346;23;20410;-73
2023/01/23 08:18:43;;;;;;;39.53;19.20;;;-1.30;99.90;;;;;;6209464;23;20643;-72
2023/01/23 08:21:11;;;;;;;42.27;20.80;;;-1.30;99.90;;;;;;6210725;23;20406;-73
2023/01/23 08:23:39;;;;;;;41.50;19.93;;;-1.30;99.90;;;;;;6213391;23;20449;-76
2023/01/23 08:26:08;;;;;;;35.70;17.27;;;-1.30;99.90;;;;;;6213277;23;20418;-72
2023/01/23 08:28:35;;;;;;;44.47;18.00;;;-1.40;99.90;;;;;;6214190;23;20399;-76
2023/01/23 08:31:03;;;;;;;41.47;17.77;;;-1.40;99.90;;;;;;6213078;23;20444;-73
2023/01/23 08:33:31;;;;;;;36.27;17.27;;;-1.30;99.90;;;;;;6208721;23;20469;-73
2023/01/23 08:35:58;;;;;;;33.97;16.17;;;-1.40;99.90;;;;;;6208966;23;20468;-72
2023/01/23 08:38:27;;;;;;;34.37;15.17;;;-1.40;99.90;;;;;;6208743;23;20622;-72
2023/01/23 08:40:57;;;;;;;25.23;14.90;;;-1.30;99.90;;;;;;6207850;23;20497;-72
2023/01/23 08:43:24;;;;;;;30.30;15.70;;;-1.20;99.90;;;;;;6208951;23;20379;-73
2023/01/23 08:45:52;;;;;;;34.27;17.40;;;-1.30;99.90;;;;;;6208615;23;20505;-73
2023/01/23 08:48:20;;;;;;;39.20;15.67;;;-1.30;99.90;;;;;;6210765;23;20426;-73
2023/01/23 08:50:47;;;;;;;26.40;14.80;;;-1.30;99.90;;;;;;6212896;23;20446;-73
2023/01/23 08:53:14;;;;;;;30.30;15.87;;;-1.20;99.90;;;;;;6212728;23;20410;-72
2023/01/23 08:55:42;;;;;;;24.50;13.50;;;-1.00;99.90;;;;;;6213429;23;20418;-78
2023/01/23 08:58:11;;;;;;;31.43;16.90;;;-0.90;99.90;;;;;;6214574;23;20402;-77
2023/01/23 09:00:39;;;;;;;37.57;16.13;;;-1.00;99.90;;;;;;6212039;23;20501;-73
2023/01/23 09:03:06;;;;;;;34.10;17.00;;;-1.00;99.90;;;;;;6208556;23;20395;-74
2023/01/23 09:05:32;;;;;;;35.43;17.43;;;-0.90;99.90;;;;;;6208691;23;20971;-76
2023/01/23 09:07:59;;;;;;;32.03;15.57;;;-0.90;99.90;;;;;;6209052;23;20409;-73
2023/01/23 09:10:26;;;;;;;34.30;15.93;;;-0.80;99.90;;;;;;6208762;23;20446;-75
2023/01/23 09:12:55;;;;;;;32.30;15.70;;;-0.80;99.90;;;;;;6208877;23;20410;-76
2023/01/23 09:15:22;;;;;;;26.17;15.50;;;-0.70;99.90;;;;;;6208487;23;20666;-76
2023/01/23 09:17:49;;;;;;;29.93;16.27;;;-0.70;99.90;;;;;;6208026;23;20410;-77
2023/01/23 09:20:16;;;;;;;31.20;16.73;;;-0.70;99.90;;;;;;6208454;23;20407;-76
2023/01/23 09:22:43;;;;;;;24.47;14.33;;;-0.70;99.90;;;;;;6208627;23;20413;-75
2023/01/23 09:25:11;;;;;;;39.37;16.10;;;-0.70;99.90;;;;;;6208875;23;20742;-75
2023/01/23 09:27:37;;;;;;;28.37;15.60;;;-0.60;99.90;;;;;;6207509;23;20418;-76
2023/01/23 09:30:07;;;;;;;29.50;15.60;;;-0.80;99.90;;;;;;6210008;23;20446;-77
2023/01/23 09:32:34;;;;;;;29.33;15.70;;;-0.70;99.90;;;;;;6210315;23;20439;-77
2023/01/23 09:35:01;;;;;;;29.53;14.90;;;-0.60;99.90;;;;;;6210882;23;20409;-76
2023/01/23 09:37:29;;;;;;;25.30;14.03;;;-0.50;99.90;;;;;;6210358;23;20494;-77
2023/01/23 09:39:56;;;;;;;26.97;14.77;;;-0.40;99.90;;;;;;6210189;23;21054;-77
2023/01/23 09:42:29;;;;;;;35.13;15.50;;;-0.30;99.90;;;;;;6210390;23;20946;-77
2023/01/23 09:45:00;;;;;;;27.30;16.70;;;-0.50;99.90;;;;;;6210223;23;20395;-77
2023/01/23 09:47:34;;;;;;;32.83;16.57;;;-0.50;99.90;;;;;;6210063;23;21173;-78
2023/01/23 09:50:05;;;;;;;37.33;17.40;;;-0.50;99.90;;;;;;6210444;23;20434;-76
2023/01/23 09:52:35;;;;;;;26.37;15.90;;;-0.60;99.90;;;;;;6210394;23;20668;-77
2023/01/23 09:55:12;;;;;;;36.77;16.70;;;-0.60;99.90;;;;;;6209883;23;20881;-77
2023/01/23 09:57:44;;;;;;;36.03;18.10;;;-0.60;99.90;;;;;;6210504;23;20448;-78
2023/01/23 10:00:16;;;;;;;28.00;15.60;;;-0.50;99.90;;;;;;6209882;23;20413;-76
2023/01/23 10:02:45;;;;;;;28.17;15.13;;;-0.50;99.90;;;;;;6210341;23;20401;-77
2023/01/23 10:05:14;;;;;;;32.63;14.87;;;-0.40;99.90;;;;;;6209191;23;20982;-77
2023/01/23 10:07:57;;;;;;;29.73;16.67;;;-0.40;99.90;;;;;;6210098;23;20485;-79
2023/01/23 10:10:45;;;;;;;28.47;14.20;;;-0.30;99.90;;;;;;6210559;23;20594;-75
2023/01/23 10:13:16;;;;;;;32.60;15.97;;;-0.50;99.90;;;;;;6209550;23;20410;-76
2023/01/23 10:16:02;;;;;;;35.70;17.57;;;-0.40;99.90;;;;;;6212346;23;20405;-77
2023/01/23 10:18:39;;;;;;;29.47;16.20;;;-0.30;99.90;;;;;;6210253;23;20383;-75
2023/01/23 10:21:17;;;;;;;31.50;16.63;;;-0.40;99.90;;;;;;6207432;23;20413;-77
2023/01/23 10:23:53;;;;;;;35.93;16.30;;;-0.30;99.90;;;;;;6209012;23;20922;-77
2023/01/23 10:26:23;;;;;;;30.77;13.83;;;-0.40;99.90;;;;;;6209521;23;20746;-77
2023/01/23 10:28:53;;;;;;;22.50;14.07;;;-0.30;99.90;;;;;;6209868;23;20415;-78
2023/01/23 10:31:30;;;;;;;24.27;14.57;;;-0.20;99.90;;;;;;6209532;23;20454;-77
2023/01/23 10:34:10;;;;;;;22.27;14.57;;;-0.30;99.90;;;;;;6209987;23;20465;-78
2023/01/23 10:36:42;;;;;;;33.17;16.63;;;-0.30;99.90;;;;;;6209222;23;20390;-77
2023/01/23 10:39:14;;;;;;;33.00;16.03;;;-0.20;99.90;;;;;;6210052;23;20395;-77
2023/01/23 10:41:41;;;;;;;37.07;16.20;;;-0.30;99.90;;;;;;6209432;23;20399;-76
2023/01/23 10:44:15;;;;;;;25.50;14.40;;;-0.30;99.90;;;;;;6209829;23;20417;-77
2023/01/23 10:46:48;;;;;;;31.83;15.43;;;0.00;99.90;;;;;;6209579;23;20742;-78
2023/01/23 10:49:30;;;;;;;31.63;16.10;;;-0.10;99.90;;;;;;6209469;23;20426;-79
2023/01/23 10:51:57;;;;;;;33.63;15.57;;;-0.10;99.90;;;;;;6208752;23;20375;-77
2023/01/23 10:54:25;;;;;;;33.87;16.30;;;0.00;99.90;;;;;;6208054;23;20407;-76
2023/01/23 10:56:57;;;;;;;26.80;15.00;;;-0.20;99.90;;;;;;6209741;23;20888;-77
2023/01/23 10:59:30;;;;;;;33.17;16.60;;;-0.20;99.90;;;;;;6209931;23;20399;-77
2023/01/23 11:02:03;;;;;;;32.40;16.70;;;0.00;99.90;;;;;;6210492;23;20396;-77
2023/01/23 11:04:35;;;;;;;28.93;15.70;;;0.10;99.90;;;;;;6208155;23;20454;-76
2023/01/23 11:07:05;;;;;;;28.57;15.73;;;0.20;99.90;;;;;;6208323;23;20406;-77
2023/01/23 11:09:32;;;;;;;26.37;15.37;;;0.20;99.90;;;;;;6209602;23;20947;-75
2023/01/23 11:12:04;;;;;;;28.70;15.70;;;0.10;99.90;;;;;;6209466;23;20930;-77
2023/01/23 11:14:31;;;;;;;31.20;17.53;;;0.40;99.90;;;;;;6209050;23;20406;-77
2023/01/23 11:17:02;;;;;;;30.77;15.90;;;0.20;99.90;;;;;;6209952;23;20410;-76
2023/01/23 11:19:33;;;;;;;29.50;15.63;;;0.30;99.90;;;;;;6210080;23;20395;-77
2023/01/23 11:22:01;;;;;;;35.30;14.80;;;0.10;99.90;;;;;;6207523;23;20413;-76
2023/01/23 11:24:32;;;;;;;31.57;15.30;;;0.20;99.90;;;;;;6209197;23;20415;-77
2023/01/23 11:27:01;;;;;;;32.87;17.73;;;0.30;99.90;;;;;;6209422;23;20395;-76
2023/01/23 11:29:30;;;;;;;26.67;15.20;;;0.30;99.90;;;;;;6209051;23;20413;-76
2023/01/23 11:32:01;;;;;;;35.23;16.00;;;0.10;99.90;;;;;;6208634;23;20419;-77
2023/01/23 11:34:34;;;;;;;27.00;16.20;;;0.10;99.90;;;;;;6208769;23;20753;-76
2023/01/23 11:37:07;;;;;;;37.00;17.77;;;0.00;99.90;;;;;;6208732;23;20461;-76
2023/01/23 11:39:47;;;;;;;34.17;16.90;;;0.10;99.90;;;;;;6208974;23;20402;-77
2023/01/23 11:42:18;;;;;;;33.30;16.50;;;0.10;99.90;;;;;;6210139;23;20410;-77
2023/01/23 11:44:45;;;;;;;29.10;17.93;;;0.00;99.90;;;;;;6209808;23;21135;-77
2023/01/23 11:47:35;;;;;;;29.07;15.60;;;0.30;99.90;;;;;;6208900;23;20418;-78
2023/01/23 11:50:34;;;;;;;31.73;16.53;;;0.30;99.90;;;;;;6209130;23;20771;-79
2023/01/23 11:53:11;;;;;;;28.53;14.30;;;0.30;99.90;;;;;;6198024;23;20422;-76
2023/01/23 11:55:54;;;;;;;27.73;14.73;;;0.30;99.90;;;;;;6209374;23;20421;-78
2023/01/23 11:58:47;;;;;;;29.87;14.57;;;0.30;99.90;;;;;;6209085;23;20422;-77
2023/01/23 12:01:17;;;;;;;34.20;16.87;;;0.30;99.90;;;;;;6193717;23;20428;-76
2023/01/23 12:04:12;;;;;;;26.20;15.00;;;0.30;99.90;;;;;;6209208;23;20396;-77
2023/01/23 12:07:14;;;;;;;28.77;17.00;;;0.30;99.90;;;;;;6193379;23;20468;-77
2023/01/23 12:10:02;;;;;;;32.73;16.83;;;0.30;99.90;;;;;;6186070;23;20413;-76
2023/01/23 12:12:51;;;;;;;30.63;13.90;;;0.20;99.90;;;;;;6208844;23;20591;-77
2023/01/23 12:15:31;;;;;;;28.27;16.53;;;0.10;99.90;;;;;;6209102;23;20398;-77
2023/01/23 12:18:06;;;;;;;34.43;16.83;;;0.30;99.90;;;;;;6208602;23;20414;-78
2023/01/23 12:20:48;;;;;;;34.40;17.40;;;0.40;99.90;;;;;;6208112;23;20382;-79
2023/01/23 12:23:34;;;;;;;31.20;14.97;;;0.40;99.90;;;;;;6209583;23;20414;-76
2023/01/23 12:26:12;;;;;;;28.73;15.60;;;0.40;99.90;;;;;;6209474;23;20757;-77
2023/01/23 12:28:58;;;;;;;25.67;14.83;;;0.30;99.90;;;;;;6208056;23;20403;-77
2023/01/23 12:31:39;;;;;;;31.37;16.73;;;0.40;99.90;;;;;;6208796;23;20750;-77
2023/01/23 12:34:23;;;;;;;29.07;15.07;;;0.30;99.90;;;;;;6209672;23;20927;-76
2023/01/23 12:37:06;;;;;;;25.30;14.73;;;0.30;99.90;;;;;;6208398;23;20434;-77
2023/01/23 12:39:57;;;;;;;27.07;15.77;;;0.50;99.90;;;;;;6208653;23;20376;-77
2023/01/23 12:42:30;;;;;;;32.07;15.00;;;0.40;99.90;;;;;;6209421;23;20539;-75
2023/01/23 12:45:03;;;;;;;27.30;16.60;;;0.30;99.90;;;;;;6207017;23;20420;-75
2023/01/23 12:47:34;;;;;;;28.00;15.10;;;0.50;99.90;;;;;;6207220;23;20405;-78